Wolfeboro, NH

4:22 PM EDT on August 28, 2016 (GMT -0400)
HADS | | Change Station

Elev 587 ft 43.58 °N, 71.20 °W | Updated 1 hour ago

Partly Cloudy
Partly Cloudy
84.0 °F
Feels Like 84.0 °F
N
0.0
Wind Variable Wind from North
Gusts 0.0 mph

Today
High -- | Low -- °F
--% Chance of Precip.
Yesterday
High -- | Low -- °F
Precip. -- in
Pressure 30.19 in
Visibility 10.0 miles
Clouds Few 5500 ft
Dew Point 0.0 °F
Humidity 33%
Rainfall in
Snow Depth Not available.
6:04 AM 7:26 PM
Waning Crescent, 13% visible
METAR KLCI 281956Z AUTO 20010KT 10SM FEW055 29/16 A3016 RMK AO2 SLP224 T02890161
Pressure 30.19 in
Visibility 10.0 miles
Clouds Few 5500 ft
Dew Point 0.0 °F
Humidity 33%
Rainfall in
Snow Depth Not available.
6:04 AM 7:26 PM
Waning Crescent, 13% visible
METAR KLCI 281956Z AUTO 20010KT 10SM FEW055 29/16 A3016 RMK AO2 SLP224 T02890161

10-Day Weather Forecast

Almanac

Astronomy

Aug. 28, 2016 Rise Set
Actual Time
Civil Twilight
Nautical Twilight
Astronomical Twilight
Moon
Length of Visible Light
Length of Day
Tomorrow will be .
, % of the Moon is Illuminated

Today's Extremes

State Highs State Lows

Community

WunderPhotos

Upload Photos

1,935,678 photos uploaded!

WunderBlog® & News

Nearby

Air Quality

  Air Quality AQ Index Pollutant
Not available.

Snow Depth

Station Depth Elevation

Earthquake Activity

City Distance Mag. Time & Date
Minimum magnitude displayed is 2.5.

Coastal Water Temperatures

Place Temperature

Stations

Nearby Weather Stations

Station Location Temp. Windchill Dew Point Humidity Wind Precip. Elev Updated Type
                   

Watches & Warnings

There are currently no watches in effect.